Huvudsida
METAR-TAF:

METAR-TAF

Flygplatser :

Tocumen, Panama

latitud: 09-03N, longitud: 079-22W, höjd: 45 m

Aktuellt väderrapport

Denna rapport gjordes för 54 minuter sedan, klockan 01:00 UTC
Vind 10 kt från nord
Temperatur 26°C
Fuktighet 70%
Tryck 1010 hPa
Sikt 10 km eller mer
Få moln på en höjd av 2000 ft

METAR: MPTO 250100Z 01010KT 9999 FEW020 26/20 Q1010 NOSIG

Tid: 20:54 (01:54 UTC)

Väderprognos

Denna rapport gjordes för 2 timmar och 54 minuter sedan, klockan 23:00 UTC
Prognos gäller från 25 kl. 00 UTC till 26 kl. 06 UTC
Vind 10 kt från nord/nordost
Sikt 10 km eller mer
Få moln på en höjd av 2000 ft
Temporärt
från 25 kl. 05 UTC till 25 kl. 07 UTC
Vind 2 kt varierande vindriktning
Temporärt
från 25 kl. 07 UTC till 25 kl. 09 UTC
Vind kt från nord
Temporärt
från 25 kl. 11 UTC till 25 kl. 13 UTC
Vind 6 kt från nord/nordväst

TAF: MPTO 242300Z 2500/2606 02010KT 9999 FEW020 TEMPO 2505/2507 VRB02KT TEMPO 2507/2509 00000KT TEMPO 2511/2513 34006KT

Aktuella väderrapporter och prognoser från 4000 flygplatser (METAR- och TAF-rapporter).

De tillgängliga stationerna syns som gula och röda prickar på kartan.

För musen över prickarna för att se namnen på stationerna.

Klicka sedan för att få väderrapporter och prognoser.

För att ändra kartan: Klicka på de gröna knapparna med ett svart kors på för att zooma in; den gröna knappen med ett streck på för att zooma ut; eller på de gröna pilarna för angränsande kartor.


METAR-TAF: